Wikieup, AZ (85360)

7:11 AM MST on September 03, 2015 (GMT -0700)
S CARROW RD | | Change Station
CLOSE
Current Station
Personal Weather Station
Location: Yucca, AZ
Elevation: 2736 ft
Nearby Weather Stations

Elev 2736 ft 34.88 °N, 114.03 °W | Updated 12 minutes ago

Partly Cloudy
Partly Cloudy
77.4 °F
Feels Like 78 °F
N
4.2
Wind Variable Wind from ESE

Today
High -- | Low -- °F
--% Chance of Precip.
Yesterday
High -- | Low -- °F
Precip. -- in
6:09 AM 6:58 PM
Waning Gibbous, 70% visible
Pressure 29.78 in
Visibility 10.0 miles
Clouds Clear
Heat Index 78 °F
Dew Point 50 °F
Humidity 38%
Rainfall 0.00 in
Snow Depth Not available.
UV 0 out of 12
Pollen 5.60 out of 12
Air Quality Not available.
Flu Activity Not available.
METAR KIGM 031351Z AUTO 13008KT 10SM CLR 20/04 A2999 RMK AO2 SLP084 T02000044
Pressure 29.78 in
Visibility 10.0 miles
Clouds Clear
Heat Index 78 °F
Dew Point 50 °F
Humidity 38%
Rainfall 0.00 in
Snow Depth Not available.
UV 0 out of 12
Pollen 5.60 out of 12
Air Quality Not available.
Flu Activity Not available.
METAR KIGM 031351Z AUTO 13008KT 10SM CLR 20/04 A2999 RMK AO2 SLP084 T02000044

10-Day Weather Forecast

×

Almanac

Astronomy

Sep. 03, 2015 Rise Set
Actual Time
Civil Twilight
Nautical Twilight
Astronomical Twilight
Moon
Length of Visible Light
Length of Day
Tomorrow will be .
, % of the Moon is Illuminated

Today's Extremes

State Highs State Lows

Community

WunderPhotos

Upload Photos

1,851,959 photos uploaded!

WunderBlogs® & News

Nearby

Air Quality

  Air Quality AQ Index Pollutant
Not available.

Snow Depth

Station Depth Elevation

Earthquake Activity

City Distance Mag. Time & Date
Minimum magnitude displayed is 2.5.

Coastal Water Temperatures

Place Temperature

Stations

Nearby Weather Stations

Station Location Temp. Windchill Dew Point Humidity Wind Precip. Elev Updated Type